Pagina principale
METAR-TAF:

METAR-TAF

Aeroporti :

Reggio Calabria, Italia

Aeroporto di Reggio Calabria

latitudine: 38-04N, longitudine: 015-39E, altezza: 11 m

Osservazione

Il bollettino è stato emesso 2 ore e 10 minuti fa, alle 22:50 UTC
Vento 10 kt da nord
Temperature 15°C
Umidità 48%
Pressione 1018 hPa
Visibilità 10 km o più
Nubi sparse ad un'altezza di 5000 ft

METAR: LICR 162250Z 36010KT 9999 SCT050 15/04 Q1018

Ora: 02:00 (01:00 UTC)

Previsione

Il bollettino è stato emesso 8 ore e 0 minuti fa, alle 17:00 UTC
Previsione valida dal 16 alle 18 UTC al 17 alle 18 UTC
Vento 15 kt da nord
Visibilità 10 km o più
Nubi sparse ad un'altezza di 3000 ft

TAF: LICR 161700Z 1618/1718 35015KT 9999 SCT030

Osservazioni e previsioni meteorologiche di più di 4000 aeroporti (messaggi METAR e TAF).

Le stazioni disponibili sono rappresentate dai dischi gialli e rossi sulla carta.

Puntare il mouse per vedere il nome della stazione.

Clicca sopra per visualizzare le osservazioni e previsioni meteorologiche.

Per cambiare la mappa : fare clic sui pulsanti verdi con una croce nera per ingrandire, il pulsante verde con un trattino per diminuire, o sulla freccia verde per le mappe adiacenti.


METAR-TAF: